createdAt,value
2023-07-14T00:00:02.862Z,13.02
2023-07-14T00:05:02.551Z,12.87
2023-07-14T00:10:02.376Z,12.76
2023-07-14T00:15:02.322Z,12.63
2023-07-14T00:20:03.228Z,12.28
2023-07-14T00:25:02.698Z,12.32
2023-07-14T00:30:02.769Z,12.66
2023-07-14T00:35:02.641Z,12.77
2023-07-14T00:40:02.468Z,12.77
2023-07-14T00:45:02.377Z,12.86
2023-07-14T00:50:02.424Z,12.94
2023-07-14T00:55:04.290Z,12.95
2023-07-14T01:00:02.775Z,12.76
2023-07-14T01:05:02.551Z,12.64
2023-07-14T01:10:02.434Z,12.63
2023-07-14T01:15:03.305Z,12.55
2023-07-14T01:20:03.139Z,12.46
2023-07-14T01:25:02.863Z,12.37
2023-07-14T01:30:02.799Z,12.32
2023-07-14T01:35:02.256Z,12.25
2023-07-14T01:40:02.950Z,12.11
2023-07-14T01:45:02.717Z,11.98
2023-07-14T01:50:02.405Z,12.21
2023-07-14T01:55:02.902Z,12.38
2023-07-14T02:00:03.153Z,12.4
2023-07-14T02:05:02.815Z,12.36
2023-07-14T02:10:02.555Z,12.42
2023-07-14T02:15:02.942Z,12.33
2023-07-14T02:20:02.200Z,12.25
2023-07-14T02:25:03.073Z,12.24
2023-07-14T02:30:02.605Z,11.97
2023-07-14T02:35:02.337Z,11.86
2023-07-14T02:40:03.289Z,11.72
2023-07-14T02:45:03.003Z,11.86
2023-07-14T02:50:02.709Z,11.67
2023-07-14T02:55:03.067Z,11.56
2023-07-14T03:00:03.140Z,11.65
2023-07-14T03:05:02.813Z,11.57
2023-07-14T03:10:02.833Z,11.6
2023-07-14T03:15:02.589Z,11.71
2023-07-14T03:20:02.361Z,12.03
2023-07-14T03:25:03.273Z,12.25
2023-07-14T03:30:02.875Z,12.19
2023-07-14T03:35:02.601Z,11.96
2023-07-14T03:40:02.426Z,11.72
2023-07-14T03:45:03.222Z,11.45
2023-07-14T03:50:03.150Z,11.44
2023-07-14T03:55:03.542Z,11.5
2023-07-14T04:00:02.752Z,11.5
2023-07-14T04:05:02.254Z,11.5
2023-07-14T04:10:02.288Z,11.75
2023-07-14T04:15:03.064Z,11.91
2023-07-14T04:20:02.862Z,12.03
2023-07-14T04:25:02.637Z,12.53
2023-07-14T04:30:02.395Z,13.64
2023-07-14T04:35:03.176Z,14.62
2023-07-14T04:40:02.834Z,16.37
2023-07-14T04:45:03.050Z,17.38
2023-07-14T04:50:02.889Z,16.48
2023-07-14T04:55:03.772Z,16.27
2023-07-14T05:00:02.306Z,16.58
2023-07-14T05:05:02.254Z,17.44
2023-07-14T05:10:03.000Z,17.32
2023-07-14T05:15:02.798Z,17.49
2023-07-14T05:20:02.487Z,17.44
2023-07-14T05:25:02.508Z,18.07
2023-07-14T05:30:02.373Z,19.42
2023-07-14T05:35:03.071Z,20.43
2023-07-14T05:40:03.111Z,19.3
2023-07-14T05:45:03.212Z,19.3
2023-07-14T05:50:03.040Z,19.25
2023-07-14T05:55:03.936Z,19.47
2023-07-14T06:00:02.612Z,19.35
2023-07-14T06:05:02.965Z,19.26
2023-07-14T06:10:02.835Z,19.85
2023-07-14T06:15:02.771Z,18.45
2023-07-14T06:20:02.926Z,18.24
2023-07-14T06:25:02.426Z,18.33
2023-07-14T06:30:03.162Z,18.65
2023-07-14T06:35:02.939Z,18.8
2023-07-14T06:40:02.832Z,19.2
2023-07-14T06:45:02.710Z,19.07
2023-07-14T06:50:02.331Z,19.32
2023-07-14T06:55:03.666Z,19.32
2023-07-14T07:00:02.752Z,20.16
2023-07-14T07:05:02.821Z,20.53
2023-07-14T07:10:02.533Z,20.44
2023-07-14T07:15:02.312Z,20.45
2023-07-14T07:20:02.282Z,20.5
2023-07-14T07:25:03.016Z,20.47
2023-07-14T07:30:02.934Z,20.69
2023-07-14T07:35:02.667Z,20.86
2023-07-14T07:40:02.357Z,20.96
2023-07-14T07:45:03.103Z,21.02
2023-07-14T07:50:02.287Z,20.85
2023-07-14T07:55:03.996Z,20.69
2023-07-14T08:00:02.880Z,21.24
2023-07-14T08:05:02.540Z,21.38
2023-07-14T08:10:02.530Z,21.41
2023-07-14T08:15:02.308Z,21.32
2023-07-14T08:20:03.180Z,21.41
2023-07-14T08:25:03.027Z,22.32
2023-07-14T08:30:02.736Z,22.13
2023-07-14T08:35:02.635Z,22.45
2023-07-14T08:40:02.454Z,22.56
2023-07-14T08:45:02.538Z,23.43
2023-07-14T08:50:02.938Z,22.91
2023-07-14T08:55:03.330Z,23.48
2023-07-14T09:00:02.447Z,23.63
2023-07-14T09:05:03.216Z,23.5
2023-07-14T09:10:02.895Z,23.82
2023-07-14T09:15:02.633Z,24.03
2023-07-14T09:20:02.411Z,23.51
2023-07-14T09:25:02.707Z,24.2
2023-07-14T09:30:02.542Z,25.12
2023-07-14T09:35:02.435Z,25.85
2023-07-14T09:40:02.180Z,24.13
2023-07-14T09:45:02.912Z,24.43
2023-07-14T09:50:02.878Z,24.35
2023-07-14T09:55:03.606Z,25.01
2023-07-14T10:00:02.595Z,25.73
2023-07-14T10:05:03.215Z,24.37
2023-07-14T10:10:03.091Z,25.56
2023-07-14T10:15:02.678Z,25.32
2023-07-14T10:20:02.468Z,25.49
2023-07-14T10:25:02.260Z,25.35
2023-07-14T10:30:03.201Z,25.36
2023-07-14T10:35:02.880Z,25.54
2023-07-14T10:40:02.648Z,27.12
2023-07-14T10:45:02.388Z,24.9
2023-07-14T10:50:03.087Z,23.26
2023-07-14T10:55:03.332Z,25.67
2023-07-14T11:00:04.460Z,26.48
2023-07-14T11:05:02.849Z,25.67
2023-07-14T11:10:02.672Z,26.18
2023-07-14T11:15:02.825Z,24.46
2023-07-14T11:20:02.487Z,26.1
2023-07-14T11:25:02.323Z,26.19
2023-07-14T11:30:03.126Z,27.17
2023-07-14T11:35:03.154Z,27.29
2023-07-14T11:40:02.965Z,26.78
2023-07-14T11:45:02.676Z,26.3
2023-07-14T11:50:02.332Z,27.77
2023-07-14T11:55:03.171Z,26.85
2023-07-14T12:00:03.294Z,26.77
2023-07-14T12:05:03.205Z,25.63
2023-07-14T12:10:02.999Z,26.43
2023-07-14T12:15:02.805Z,26.97
2023-07-14T12:20:02.612Z,27.47
2023-07-14T12:25:02.533Z,26.12
2023-07-14T12:30:03.189Z,25.69
2023-07-14T12:35:03.010Z,26.96
2023-07-14T12:40:02.505Z,27.97
2023-07-14T12:45:02.290Z,28.12
2023-07-14T12:50:03.176Z,27.42
2023-07-14T12:55:03.789Z,27.72
2023-07-14T13:00:02.949Z,28.89
2023-07-14T13:05:02.624Z,26.37
2023-07-14T13:10:02.263Z,27.1
2023-07-14T13:15:03.249Z,27.26
2023-07-14T13:20:02.938Z,26.02
2023-07-14T13:25:03.011Z,25.81
2023-07-14T13:30:03.143Z,29.14
2023-07-14T13:35:02.746Z,28.87
2023-07-14T13:40:02.535Z,28.56
2023-07-14T13:45:02.761Z,26.89
2023-07-14T13:50:02.287Z,25.98
2023-07-14T13:55:04.087Z,26.85
2023-07-14T14:00:02.939Z,27.44
2023-07-14T14:05:02.972Z,28.37
2023-07-14T14:10:02.807Z,27.1
2023-07-14T14:15:02.547Z,29.17
2023-07-14T14:20:02.977Z,29.1
2023-07-14T14:25:02.449Z,29.17
2023-07-14T14:30:03.215Z,28.22
2023-07-14T14:35:02.901Z,26.94
2023-07-14T14:40:02.763Z,27.82
2023-07-14T14:45:02.945Z,26.31
2023-07-14T14:50:02.543Z,27.92
2023-07-14T14:55:03.034Z,28.39
2023-07-14T15:00:03.029Z,29.64
2023-07-14T15:05:03.061Z,27.55
2023-07-14T15:10:02.852Z,28.56
2023-07-14T15:15:02.676Z,28.8
2023-07-14T15:20:02.578Z,29.3
2023-07-14T15:25:02.480Z,27.19
2023-07-14T15:30:03.269Z,28.99
2023-07-14T15:35:03.081Z,27.82
2023-07-14T15:40:02.814Z,26.35
2023-07-14T15:45:02.572Z,25.65
2023-07-14T15:50:02.396Z,26.03
2023-07-14T15:55:04.265Z,25.98
2023-07-14T16:00:02.846Z,25.8
2023-07-14T16:05:02.976Z,26.45
2023-07-14T16:10:03.200Z,28.34
2023-07-14T16:15:02.838Z,27.39
2023-07-14T16:20:02.625Z,26.44
2023-07-14T16:25:02.308Z,26.05
2023-07-14T16:30:03.257Z,25.54
2023-07-14T16:35:02.983Z,25.36
2023-07-14T16:40:02.751Z,25.32
2023-07-14T16:45:02.633Z,25.22
2023-07-14T16:50:02.450Z,25.2
2023-07-14T16:55:04.311Z,24.98
2023-07-14T17:00:03.000Z,25.09
2023-07-14T17:05:03.096Z,25.28
2023-07-14T17:10:02.846Z,25.33
2023-07-14T17:15:02.723Z,26.86
2023-07-14T17:20:02.638Z,27.25
2023-07-14T17:25:02.357Z,27.65
2023-07-14T17:30:02.624Z,27.28
2023-07-14T17:35:02.477Z,27.17
2023-07-14T17:40:02.359Z,27.54
2023-07-14T17:45:02.328Z,27
2023-07-14T17:50:03.013Z,26.93
2023-07-14T17:55:03.847Z,27
2023-07-14T18:00:02.622Z,27.01
2023-07-14T18:05:02.330Z,26.67
2023-07-14T18:10:02.205Z,26.27
2023-07-14T18:15:03.038Z,25.82
2023-07-14T18:20:02.216Z,25.76
2023-07-14T18:25:03.323Z,25.75
2023-07-14T18:30:02.781Z,25.68
2023-07-14T18:35:02.522Z,25.27
2023-07-14T18:40:02.676Z,24.54
2023-07-14T18:45:02.489Z,24.36
2023-07-14T18:50:03.118Z,24.03
2023-07-14T18:55:03.633Z,23.88
2023-07-14T19:00:02.751Z,23.68
2023-07-14T19:05:02.417Z,23.4
2023-07-14T19:10:02.340Z,23.07
2023-07-14T19:15:03.080Z,22.75
2023-07-14T19:20:02.938Z,22.46
2023-07-14T19:25:02.907Z,22.38
2023-07-14T19:30:02.744Z,22.37
2023-07-14T19:35:02.584Z,22.07
2023-07-14T19:40:02.300Z,21.72
2023-07-14T19:45:03.107Z,21.64
2023-07-14T19:50:02.806Z,21.45
2023-07-14T19:55:03.753Z,21.49
2023-07-14T20:00:02.788Z,21.47
2023-07-14T20:05:02.600Z,21.46
2023-07-14T20:10:02.374Z,21.17
2023-07-14T20:15:03.121Z,20.78
2023-07-14T20:20:03.024Z,20.37
2023-07-14T20:25:02.863Z,20.15
2023-07-14T20:30:02.397Z,19.93
2023-07-14T20:35:03.169Z,19.77
2023-07-14T20:40:03.158Z,20.09
2023-07-14T20:45:02.929Z,20.27
2023-07-14T20:50:02.654Z,20
2023-07-14T20:55:03.215Z,19.74
2023-07-14T21:00:03.407Z,19.68
2023-07-14T21:05:02.919Z,19.63
2023-07-14T21:10:02.607Z,19.6
2023-07-14T21:15:02.487Z,19.54
2023-07-14T21:20:02.380Z,19.24
2023-07-14T21:25:03.186Z,19.06
2023-07-14T21:30:03.187Z,18.86
2023-07-14T21:35:02.907Z,18.75
2023-07-14T21:40:02.736Z,18.68
2023-07-14T21:45:02.441Z,18.53
2023-07-14T21:50:02.207Z,18.87
2023-07-14T21:55:03.770Z,19.13
2023-07-14T22:00:02.885Z,19.08
2023-07-14T22:05:02.922Z,18.93
2023-07-14T22:10:02.518Z,18.91
2023-07-14T22:15:03.234Z,18.87
2023-07-14T22:20:02.432Z,18.83
2023-07-14T22:25:03.120Z,19.08
2023-07-14T22:30:03.050Z,19.18
2023-07-14T22:35:02.760Z,19.22
2023-07-14T22:40:02.476Z,19.3
2023-07-14T22:45:03.208Z,19.21
2023-07-14T22:50:02.917Z,19.18
2023-07-14T22:55:03.969Z,19.01
2023-07-14T23:00:02.524Z,18.79
2023-07-14T23:05:02.446Z,18.54
2023-07-14T23:10:02.273Z,18.39
2023-07-14T23:15:03.357Z,18.28
2023-07-14T23:20:03.082Z,17.78
2023-07-14T23:25:02.769Z,16.89
2023-07-14T23:30:02.386Z,15.97
2023-07-14T23:35:02.297Z,15.32
2023-07-14T23:40:02.395Z,15.03
2023-07-14T23:45:03.193Z,14.59
2023-07-14T23:50:02.818Z,14.98
2023-07-14T23:55:04.056Z,15.81
